createdAt,value
2019-04-20T00:01:22.747Z,99.90
2019-04-20T00:03:49.024Z,99.90
2019-04-20T00:06:19.488Z,99.90
2019-04-20T00:08:55.488Z,99.90
2019-04-20T00:11:26.314Z,99.90
2019-04-20T00:13:57.709Z,99.90
2019-04-20T00:16:21.079Z,99.90
2019-04-20T00:18:53.934Z,99.90
2019-04-20T00:21:42.788Z,99.90
2019-04-20T00:24:22.880Z,99.90
2019-04-20T00:27:22.058Z,99.90
2019-04-20T00:29:35.456Z,99.90
2019-04-20T00:31:59.376Z,99.90
2019-04-20T00:34:22.845Z,99.90
2019-04-20T00:36:47.523Z,99.90
2019-04-20T00:39:17.169Z,99.90
2019-04-20T00:41:52.097Z,99.90
2019-04-20T00:44:23.365Z,99.90
2019-04-20T00:47:04.767Z,99.90
2019-04-20T00:49:36.240Z,99.90
2019-04-20T00:52:18.817Z,99.90
2019-04-20T00:54:20.151Z,99.90
2019-04-20T00:56:52.056Z,99.90
2019-04-20T00:59:35.468Z,99.90
2019-04-20T01:02:10.607Z,99.90
2019-04-20T01:04:44.121Z,99.90
2019-04-20T01:07:10.768Z,99.90
2019-04-20T01:09:30.823Z,99.90
2019-04-20T01:12:05.137Z,99.90
2019-04-20T01:14:37.965Z,99.90
2019-04-20T01:17:11.410Z,99.90
2019-04-20T01:19:31.076Z,99.90
2019-04-20T01:22:05.245Z,99.90
2019-04-20T01:24:35.375Z,99.90
2019-04-20T01:27:04.154Z,99.90
2019-04-20T01:29:39.370Z,99.90
2019-04-20T01:32:15.621Z,99.90
2019-04-20T01:34:49.660Z,99.90
2019-04-20T01:37:17.914Z,99.90
2019-04-20T01:39:41.495Z,99.90
2019-04-20T01:42:04.578Z,99.90
2019-04-20T01:44:40.188Z,99.90
2019-04-20T01:47:06.333Z,99.90
2019-04-20T01:49:36.829Z,99.90
2019-04-20T01:52:13.870Z,99.90
2019-04-20T01:54:58.023Z,99.90
2019-04-20T01:57:26.142Z,99.90
2019-04-20T02:00:14.449Z,99.90
2019-04-20T02:02:56.504Z,99.90
2019-04-20T02:05:24.719Z,99.90
2019-04-20T02:07:55.048Z,99.90
2019-04-20T02:10:31.203Z,99.90
2019-04-20T02:12:57.921Z,99.90
2019-04-20T02:15:32.715Z,99.90
2019-04-20T02:18:07.673Z,99.90
2019-04-20T02:20:44.604Z,99.90
2019-04-20T02:23:12.698Z,99.90
2019-04-20T02:25:26.974Z,99.90
2019-04-20T02:28:14.775Z,99.90
2019-04-20T02:31:06.509Z,99.90
2019-04-20T02:33:59.244Z,99.90
2019-04-20T02:36:42.969Z,99.90
2019-04-20T02:41:20.150Z,99.90
2019-04-20T02:46:28.603Z,99.90
2019-04-20T02:49:06.043Z,99.90
2019-04-20T02:51:22.617Z,99.90
2019-04-20T02:54:13.117Z,99.90
2019-04-20T02:56:32.723Z,99.90
2019-04-20T02:59:02.499Z,99.90
2019-04-20T03:01:29.454Z,99.90
2019-04-20T03:03:46.246Z,99.90
2019-04-20T03:06:22.763Z,99.90
2019-04-20T03:09:04.301Z,99.90
2019-04-20T03:11:40.419Z,99.90
2019-04-20T03:14:02.212Z,99.90
2019-04-20T03:16:32.407Z,99.90
2019-04-20T03:18:58.473Z,99.90
2019-04-20T03:21:38.683Z,99.90
2019-04-20T03:24:11.720Z,99.90
2019-04-20T03:26:57.943Z,99.90
2019-04-20T03:29:40.846Z,99.90
2019-04-20T03:37:28.101Z,99.90
2019-04-20T03:39:40.505Z,99.90
2019-04-20T03:42:01.066Z,99.90
2019-04-20T03:44:34.031Z,99.90
2019-04-20T03:47:06.827Z,99.90
2019-04-20T03:49:55.066Z,99.90
2019-04-20T03:52:27.708Z,99.90
2019-04-20T03:55:10.285Z,99.90
2019-04-20T03:57:47.740Z,99.90
2019-04-20T04:00:26.476Z,99.90
2019-04-20T04:03:10.501Z,99.90
2019-04-20T04:05:27.894Z,99.90
2019-04-20T04:07:45.265Z,99.90
2019-04-20T04:10:27.254Z,99.90
2019-04-20T04:13:16.892Z,99.90
2019-04-20T04:15:53.276Z,99.90
2019-04-20T04:18:26.127Z,99.90
2019-04-20T04:20:57.297Z,99.90
2019-04-20T04:23:38.216Z,99.90
2019-04-20T04:26:08.605Z,99.90
2019-04-20T04:28:36.991Z,99.90
2019-04-20T04:31:14.627Z,99.90
2019-04-20T04:36:10.538Z,99.90
2019-04-20T04:41:19.986Z,99.90
2019-04-20T04:43:44.443Z,99.90
2019-04-20T04:45:57.463Z,99.90
2019-04-20T04:48:33.029Z,99.90
2019-04-20T04:51:03.869Z,99.90
2019-04-20T04:53:41.732Z,99.90
2019-04-20T04:56:04.901Z,99.90
2019-04-20T04:58:29.823Z,99.90
2019-04-20T05:01:06.605Z,99.90
2019-04-20T05:03:44.704Z,99.90
2019-04-20T05:06:20.971Z,99.90
2019-04-20T05:08:38.625Z,99.90
2019-04-20T05:11:03.235Z,99.90
2019-04-20T05:13:37.072Z,99.90
2019-04-20T05:16:16.904Z,99.90
2019-04-20T05:18:57.884Z,99.90
2019-04-20T05:21:26.022Z,99.90
2019-04-20T05:23:47.918Z,99.90
2019-04-20T05:26:42.439Z,99.90
2019-04-20T05:29:01.361Z,99.90
2019-04-20T05:31:30.883Z,99.90
2019-04-20T05:34:19.980Z,99.90
2019-04-20T05:36:46.277Z,99.90
2019-04-20T05:39:23.649Z,99.90
2019-04-20T05:41:44.084Z,99.90
2019-04-20T05:44:12.701Z,99.90
2019-04-20T05:46:48.252Z,99.90
2019-04-20T05:49:22.067Z,99.90
2019-04-20T05:51:49.846Z,99.90
2019-04-20T05:54:23.312Z,99.90
2019-04-20T05:56:52.497Z,99.90
2019-04-20T05:59:23.431Z,99.90
2019-04-20T06:02:01.389Z,99.90
2019-04-20T06:04:44.532Z,99.90
2019-04-20T06:06:55.209Z,99.90
2019-04-20T06:09:30.238Z,99.90
2019-04-20T06:12:07.591Z,99.90
2019-04-20T06:14:43.163Z,99.90
2019-04-20T06:17:20.974Z,99.90
2019-04-20T06:19:44.194Z,99.90
2019-04-20T06:22:37.892Z,99.90
2019-04-20T06:25:24.116Z,99.90
2019-04-20T06:27:34.217Z,99.90
2019-04-20T06:30:08.562Z,99.90
2019-04-20T06:32:59.252Z,99.90
2019-04-20T06:35:45.487Z,99.90
2019-04-20T06:38:23.194Z,99.90
2019-04-20T06:40:47.392Z,99.90
2019-04-20T06:43:05.490Z,99.90
2019-04-20T06:45:33.770Z,99.90
2019-04-20T06:48:12.261Z,99.90
2019-04-20T06:50:32.601Z,99.90
2019-04-20T06:53:22.061Z,99.90
2019-04-20T06:55:49.759Z,99.90
2019-04-20T06:58:31.926Z,99.90
2019-04-20T07:00:46.474Z,99.90
2019-04-20T07:03:30.607Z,99.90
2019-04-20T07:05:47.787Z,99.90
2019-04-20T07:08:34.588Z,99.90
2019-04-20T07:10:54.546Z,99.90
2019-04-20T07:13:12.870Z,99.90
2019-04-20T07:15:46.470Z,99.90
2019-04-20T07:18:24.571Z,99.90
2019-04-20T07:23:26.912Z,99.90
2019-04-20T07:26:02.136Z,99.90
2019-04-20T07:28:35.339Z,99.90
2019-04-20T07:30:58.251Z,99.90
2019-04-20T07:33:29.656Z,99.90
2019-04-20T07:35:56.007Z,99.80
2019-04-20T07:38:34.286Z,99.90
2019-04-20T07:40:59.614Z,99.30
2019-04-20T07:43:29.985Z,98.60
2019-04-20T07:46:01.846Z,99.30
2019-04-20T07:48:30.497Z,99.40
2019-04-20T07:50:55.451Z,99.80
2019-04-20T07:53:25.388Z,99.00
2019-04-20T07:56:05.134Z,98.60
2019-04-20T07:58:25.175Z,97.70
2019-04-20T08:01:07.987Z,97.10
2019-04-20T08:03:44.200Z,96.80
2019-04-20T08:06:14.508Z,96.40
2019-04-20T08:08:57.102Z,96.20
2019-04-20T08:11:36.610Z,96.20
2019-04-20T08:14:06.046Z,96.30
2019-04-20T08:19:05.178Z,96.30
2019-04-20T08:21:39.141Z,96.00
2019-04-20T08:24:07.025Z,94.90
2019-04-20T08:26:23.507Z,94.80
2019-04-20T08:28:55.267Z,94.80
2019-04-20T08:31:47.366Z,95.20
2019-04-20T08:34:38.377Z,94.40
2019-04-20T08:37:01.364Z,94.60
2019-04-20T08:39:45.375Z,94.60
2019-04-20T08:42:06.329Z,96.60
2019-04-20T08:44:55.187Z,93.60
2019-04-20T08:47:20.310Z,93.20
2019-04-20T08:49:41.327Z,92.50
2019-04-20T08:52:31.974Z,93.30
2019-04-20T08:54:34.415Z,95.10
2019-04-20T08:56:55.367Z,93.10
2019-04-20T08:59:21.211Z,93.10
2019-04-20T09:01:51.065Z,93.00
2019-04-20T09:04:29.549Z,95.00
2019-04-20T09:07:03.998Z,93.90
2019-04-20T09:12:11.544Z,92.60
2019-04-20T09:14:23.669Z,93.40
2019-04-20T09:17:00.285Z,92.10
2019-04-20T09:19:34.632Z,93.80
2019-04-20T09:22:24.300Z,91.10
2019-04-20T09:25:13.399Z,91.20
2019-04-20T09:27:26.875Z,90.90
2019-04-20T09:30:06.206Z,92.20
2019-04-20T09:32:35.454Z,90.90
2019-04-20T09:35:07.823Z,89.40
2019-04-20T09:37:43.544Z,91.00
2019-04-20T09:40:28.275Z,90.00
2019-04-20T09:42:53.016Z,90.20
2019-04-20T09:45:33.915Z,87.30
2019-04-20T09:47:58.374Z,88.20
2019-04-20T09:50:43.757Z,85.20
2019-04-20T09:53:14.333Z,90.50
2019-04-20T09:55:46.881Z,84.70
2019-04-20T09:58:13.546Z,87.10
2019-04-20T10:01:00.774Z,90.20
2019-04-20T10:03:16.615Z,88.00
2019-04-20T10:05:49.638Z,85.90
2019-04-20T10:08:19.665Z,90.00
2019-04-20T10:10:51.197Z,85.30
2019-04-20T10:13:21.640Z,83.20
2019-04-20T10:15:50.877Z,81.20
2019-04-20T10:18:21.772Z,82.90
2019-04-20T10:20:51.621Z,87.10
2019-04-20T10:23:22.697Z,89.50
2019-04-20T10:25:51.855Z,87.20
2019-04-20T10:28:21.549Z,85.60
2019-04-20T10:30:50.871Z,86.60
2019-04-20T10:33:19.911Z,85.10
2019-04-20T10:35:49.648Z,81.80
2019-04-20T10:38:23.321Z,85.60
2019-04-20T10:41:01.896Z,82.00
2019-04-20T10:43:23.964Z,78.70
2019-04-20T10:45:53.181Z,84.60
2019-04-20T10:48:23.499Z,85.20
2019-04-20T10:50:55.274Z,82.70
2019-04-20T10:53:24.266Z,84.50
2019-04-20T10:55:53.669Z,77.70
2019-04-20T10:58:22.804Z,83.40
2019-04-20T11:00:51.945Z,78.50
2019-04-20T11:03:22.778Z,84.40
2019-04-20T11:05:52.953Z,81.00
2019-04-20T11:08:22.455Z,82.50
2019-04-20T11:11:03.441Z,81.50
2019-04-20T11:13:25.444Z,79.00
2019-04-20T11:15:55.104Z,82.90
2019-04-20T11:18:25.053Z,87.40
2019-04-20T11:20:55.328Z,80.90
2019-04-20T11:23:24.529Z,81.50
2019-04-20T11:25:53.795Z,77.50
2019-04-20T11:28:23.975Z,77.80
2019-04-20T11:30:54.239Z,78.20
2019-04-20T11:33:24.541Z,70.70
2019-04-20T11:35:54.981Z,70.00
2019-04-20T11:38:26.101Z,69.30
2019-04-20T11:41:09.958Z,70.00
2019-04-20T11:43:26.101Z,69.30
2019-04-20T11:45:56.429Z,71.00
2019-04-20T11:48:25.971Z,69.60
2019-04-20T11:50:56.104Z,67.80
2019-04-20T11:53:26.859Z,66.80
2019-04-20T11:55:58.486Z,67.70
2019-04-20T11:58:27.977Z,68.90
2019-04-20T12:01:05.062Z,68.60
2019-04-20T12:03:37.874Z,67.70
2019-04-20T12:06:04.705Z,69.20
2019-04-20T12:08:32.668Z,67.60
2019-04-20T12:11:18.808Z,69.10
2019-04-20T12:13:34.402Z,67.80
2019-04-20T12:16:03.618Z,67.40
2019-04-20T12:18:33.695Z,66.80
2019-04-20T12:21:03.081Z,69.20
2019-04-20T12:23:34.004Z,68.50
2019-04-20T12:26:03.032Z,70.40
2019-04-20T12:28:33.616Z,69.50
2019-04-20T12:31:11.420Z,69.40
2019-04-20T12:33:34.550Z,67.90
2019-04-20T12:36:06.008Z,67.80
2019-04-20T12:38:35.229Z,67.20
2019-04-20T12:41:06.126Z,67.90
2019-04-20T12:43:36.016Z,69.10
2019-04-20T12:46:05.647Z,69.80
2019-04-20T12:48:35.548Z,67.30
2019-04-20T12:51:05.768Z,68.00
2019-04-20T12:53:35.025Z,66.90
2019-04-20T12:56:06.414Z,69.90
2019-04-20T12:58:37.159Z,69.60
2019-04-20T13:01:08.094Z,66.70
2019-04-20T13:03:37.365Z,70.10
2019-04-20T13:06:07.883Z,69.60
2019-04-20T13:08:43.423Z,73.70
2019-04-20T13:11:14.011Z,76.00
2019-04-20T13:13:50.567Z,74.20
2019-04-20T13:16:23.767Z,74.20
2019-04-20T13:18:55.272Z,73.90
2019-04-20T13:21:27.602Z,74.50
2019-04-20T13:23:56.777Z,76.60
2019-04-20T13:26:27.050Z,77.10
2019-04-20T13:28:57.131Z,76.60
2019-04-20T13:31:29.696Z,76.00
2019-04-20T13:33:59.128Z,76.60
2019-04-20T13:36:28.587Z,76.10
2019-04-20T13:38:59.421Z,79.10
2019-04-20T13:41:29.797Z,77.40
2019-04-20T13:44:01.232Z,76.70
2019-04-20T13:46:31.244Z,76.60
2019-04-20T13:49:00.869Z,77.20
2019-04-20T13:51:30.823Z,75.50
2019-04-20T13:54:01.486Z,76.70
2019-04-20T13:56:32.265Z,77.40
2019-04-20T13:59:03.778Z,76.60
2019-04-20T14:01:50.550Z,77.90
2019-04-20T14:04:23.105Z,77.40
2019-04-20T14:06:57.567Z,79.40
2019-04-20T14:09:27.576Z,79.10
2019-04-20T14:12:04.744Z,78.40
2019-04-20T14:14:28.956Z,78.90
2019-04-20T14:16:59.467Z,79.40
2019-04-20T14:19:29.333Z,77.80
2019-04-20T14:21:59.545Z,77.50
2019-04-20T14:24:28.966Z,76.40
2019-04-20T14:26:59.005Z,78.20
2019-04-20T14:29:30.676Z,78.70
2019-04-20T14:32:02.292Z,77.30
2019-04-20T14:34:31.123Z,78.00
2019-04-20T14:37:00.548Z,77.50
2019-04-20T14:39:30.269Z,76.90
2019-04-20T14:42:00.438Z,77.80
2019-04-20T14:44:29.890Z,75.50
2019-04-20T14:46:59.991Z,75.60
2019-04-20T14:49:30.398Z,77.80
2019-04-20T14:52:01.561Z,75.60
2019-04-20T14:54:31.838Z,77.80
2019-04-20T14:57:03.441Z,81.10
2019-04-20T14:59:37.816Z,77.90
2019-04-20T15:02:12.564Z,79.20
2019-04-20T15:04:43.272Z,78.40
2019-04-20T15:07:13.051Z,77.90
2019-04-20T15:09:42.778Z,81.30
2019-04-20T15:12:12.932Z,80.50
2019-04-20T15:14:42.808Z,77.50
2019-04-20T15:17:13.750Z,77.90
2019-04-20T15:19:47.521Z,78.60
2019-04-20T15:22:33.882Z,79.60
2019-04-20T15:25:03.275Z,82.80
2019-04-20T15:27:35.209Z,85.60
2019-04-20T15:30:06.602Z,86.20
2019-04-20T15:32:36.853Z,87.30
2019-04-20T15:35:09.029Z,86.50
2019-04-20T15:37:39.490Z,86.00
2019-04-20T15:40:09.200Z,85.70
2019-04-20T15:42:51.473Z,88.20
2019-04-20T15:45:11.430Z,90.30
2019-04-20T15:47:40.351Z,90.40
2019-04-20T15:50:09.674Z,90.20
2019-04-20T15:52:44.988Z,91.30
2019-04-20T15:55:19.683Z,93.40
2019-04-20T15:57:40.668Z,94.00
2019-04-20T16:00:10.899Z,94.50
2019-04-20T16:02:45.340Z,94.90
2019-04-20T16:05:33.231Z,94.70
2019-04-20T16:08:21.884Z,95.20
2019-04-20T16:10:54.862Z,95.80
2019-04-20T16:13:35.203Z,96.60
2019-04-20T16:15:56.011Z,97.00
2019-04-20T16:18:25.203Z,97.70
2019-04-20T16:21:00.415Z,98.10
2019-04-20T16:23:25.025Z,98.00
2019-04-20T16:25:59.982Z,97.80
2019-04-20T16:28:31.924Z,97.40
2019-04-20T16:31:01.490Z,97.60
2019-04-20T16:33:34.525Z,97.70
2019-04-20T16:36:04.758Z,97.40
2019-04-20T16:38:35.140Z,97.60
2019-04-20T16:41:04.287Z,96.60
2019-04-20T16:43:40.326Z,96.70
2019-04-20T16:46:05.624Z,96.80
2019-04-20T16:48:35.942Z,96.70
2019-04-20T16:51:13.187Z,96.80
2019-04-20T16:53:43.598Z,96.50
2019-04-20T16:56:14.509Z,96.50
2019-04-20T16:58:48.287Z,96.40
2019-04-20T17:01:17.088Z,96.00
2019-04-20T17:03:54.529Z,96.30
2019-04-20T17:06:16.477Z,95.30
2019-04-20T17:08:46.489Z,96.00
2019-04-20T17:11:16.061Z,96.20
2019-04-20T17:13:49.700Z,97.20
2019-04-20T17:16:15.724Z,96.70
2019-04-20T17:18:47.874Z,96.90
2019-04-20T17:21:23.213Z,96.40
2019-04-20T17:23:49.345Z,96.90
2019-04-20T17:26:36.734Z,96.90
2019-04-20T17:29:17.953Z,96.60
2019-04-20T17:31:57.817Z,96.20
2019-04-20T17:34:44.011Z,96.50
2019-04-20T17:36:57.860Z,95.80
2019-04-20T17:39:37.325Z,96.10
2019-04-20T17:42:14.654Z,96.50
2019-04-20T17:44:42.853Z,96.00
2019-04-20T17:47:11.526Z,96.10
2019-04-20T17:49:39.384Z,96.60
2019-04-20T17:52:26.554Z,96.80
2019-04-20T17:54:41.304Z,96.70
2019-04-20T17:57:11.068Z,96.70
2019-04-20T17:59:47.270Z,96.70
2019-04-20T18:02:47.477Z,96.90
2019-04-20T18:05:25.632Z,96.80
2019-04-20T18:07:44.847Z,96.50
2019-04-20T18:10:17.221Z,96.60
2019-04-20T18:12:37.415Z,96.20
2019-04-20T18:15:21.729Z,96.50
2019-04-20T18:18:07.197Z,97.00
2019-04-20T18:20:28.050Z,96.80
2019-04-20T18:22:58.662Z,97.40
2019-04-20T18:25:57.432Z,97.50
2019-04-20T18:28:13.647Z,98.10
2019-04-20T18:30:51.452Z,98.60
2019-04-20T18:33:13.669Z,99.30
2019-04-20T18:35:46.010Z,99.60
2019-04-20T18:38:16.518Z,99.50
2019-04-20T18:40:53.446Z,99.80
2019-04-20T18:43:20.477Z,99.80
2019-04-20T18:46:03.727Z,99.90
2019-04-20T18:48:39.252Z,99.90
2019-04-20T18:50:48.416Z,99.90
2019-04-20T18:53:28.390Z,99.90
2019-04-20T18:55:55.151Z,99.90
2019-04-20T18:58:19.178Z,99.90
2019-04-20T19:00:51.697Z,99.90
2019-04-20T19:03:25.767Z,99.90
2019-04-20T19:05:49.633Z,99.90
2019-04-20T19:08:19.265Z,99.90
2019-04-20T19:10:57.582Z,99.90
2019-04-20T19:13:30.426Z,99.90
2019-04-20T19:16:09.428Z,99.90
2019-04-20T19:18:45.262Z,99.90
2019-04-20T19:21:01.288Z,99.90
2019-04-20T19:23:30.199Z,99.90
2019-04-20T19:26:04.439Z,99.90
2019-04-20T19:28:37.819Z,99.90
2019-04-20T19:31:14.706Z,99.90
2019-04-20T19:33:52.435Z,99.90
2019-04-20T19:36:15.124Z,99.90
2019-04-20T19:38:48.896Z,99.90
2019-04-20T19:41:18.732Z,99.90
2019-04-20T19:43:45.687Z,99.90
2019-04-20T19:48:48.675Z,99.90
2019-04-20T19:51:29.893Z,99.90
2019-04-20T19:53:57.252Z,99.90
2019-04-20T19:56:17.152Z,99.90
2019-04-20T19:58:53.340Z,99.90
2019-04-20T20:01:06.744Z,99.90
2019-04-20T20:03:37.377Z,99.90
2019-04-20T20:06:12.023Z,99.90
2019-04-20T20:08:39.974Z,99.90
2019-04-20T20:11:09.633Z,99.90
2019-04-20T20:13:44.693Z,99.90
2019-04-20T20:16:14.489Z,99.90
2019-04-20T20:18:53.356Z,99.90
2019-04-20T20:21:22.252Z,99.90
2019-04-20T20:23:41.806Z,99.90
2019-04-20T20:26:22.029Z,99.90
2019-04-20T20:28:49.468Z,99.90
2019-04-20T20:31:27.521Z,99.90
2019-04-20T20:33:59.028Z,99.90
2019-04-20T20:36:19.310Z,99.90
2019-04-20T20:38:50.218Z,99.90
2019-04-20T20:41:23.603Z,99.90
2019-04-20T20:43:56.320Z,99.90
2019-04-20T20:46:23.970Z,99.90
2019-04-20T20:49:17.022Z,99.90
2019-04-20T20:51:44.278Z,99.90
2019-04-20T20:53:59.034Z,99.90
2019-04-20T20:56:24.413Z,99.90
2019-04-20T20:58:59.193Z,99.90
2019-04-20T21:01:23.697Z,99.90
2019-04-20T21:03:52.604Z,99.90
2019-04-20T21:06:20.275Z,99.90
2019-04-20T21:08:52.341Z,99.90
2019-04-20T21:11:25.324Z,99.90
2019-04-20T21:13:52.124Z,99.90
2019-04-20T21:16:25.617Z,99.90
2019-04-20T21:19:10.486Z,99.90
2019-04-20T21:21:37.090Z,99.90
2019-04-20T21:24:00.414Z,99.90
2019-04-20T21:26:30.450Z,99.90
2019-04-20T21:28:55.491Z,99.90
2019-04-20T21:31:28.976Z,99.90
2019-04-20T21:33:55.188Z,99.90
2019-04-20T21:36:28.277Z,99.90
2019-04-20T21:38:55.833Z,99.90
2019-04-20T21:41:26.090Z,99.90
2019-04-20T21:43:55.982Z,99.90
2019-04-20T21:46:31.925Z,99.90
2019-04-20T21:49:08.142Z,99.90
2019-04-20T21:51:37.086Z,99.90
2019-04-20T21:53:58.734Z,99.90
2019-04-20T21:56:28.086Z,99.90
2019-04-20T21:59:02.093Z,99.90
2019-04-20T22:01:35.718Z,99.90
2019-04-20T22:03:58.615Z,99.90
2019-04-20T22:06:28.505Z,99.90
2019-04-20T22:09:01.091Z,99.90
2019-04-20T22:11:27.903Z,99.90
2019-04-20T22:13:57.450Z,99.90
2019-04-20T22:16:36.409Z,99.90
2019-04-20T22:19:14.584Z,99.90
2019-04-20T22:21:43.716Z,99.90
2019-04-20T22:24:09.481Z,99.90
2019-04-20T22:26:39.541Z,99.90
2019-04-20T22:29:00.444Z,99.90
2019-04-20T22:31:29.956Z,99.90
2019-04-20T22:34:04.442Z,99.90
2019-04-20T22:36:37.821Z,99.90
2019-04-20T22:39:18.688Z,99.90
2019-04-20T22:41:53.632Z,99.90
2019-04-20T22:44:22.712Z,99.90
2019-04-20T22:46:52.193Z,99.90
2019-04-20T22:49:38.844Z,99.90
2019-04-20T22:51:59.530Z,99.90
2019-04-20T22:54:39.745Z,99.90
2019-04-20T22:57:03.615Z,99.90
2019-04-20T22:59:37.021Z,99.90
2019-04-20T23:02:00.013Z,99.90
2019-04-20T23:04:24.824Z,99.90
2019-04-20T23:06:54.116Z,99.90
2019-04-20T23:09:24.800Z,99.90
2019-04-20T23:12:03.017Z,99.90
2019-04-20T23:14:24.667Z,99.90
2019-04-20T23:16:55.562Z,99.90
2019-04-20T23:19:35.762Z,99.90
2019-04-20T23:21:59.729Z,99.90
2019-04-20T23:24:24.885Z,99.90
2019-04-20T23:26:55.253Z,99.90
2019-04-20T23:29:28.339Z,99.90
2019-04-20T23:32:01.402Z,99.90
2019-04-20T23:34:29.037Z,99.90
2019-04-20T23:36:56.779Z,99.90
2019-04-20T23:39:34.036Z,99.90
2019-04-20T23:42:00.206Z,99.90
2019-04-20T23:44:40.133Z,99.90
2019-04-20T23:47:20.179Z,99.90
2019-04-20T23:50:11.321Z,99.90
2019-04-20T23:52:43.218Z,99.90
2019-04-20T23:54:59.186Z,99.90
2019-04-20T23:57:24.132Z,99.90
2019-04-20T23:59:53.788Z,99.90
